KAL9401 RKSI-YSSY
Flight info
| Callsign | KAL9401 |
|---|---|
| Flight time | N/A |
| Altitude | 33000 |
| Route | OSPOT Y782 TGU Y781 BESNA Y209 IKE A582 HKC Y14 TGE G339 KALGU/N0488F350 G339 SABGU DCT 20N138E 15N140E 10N141E DCT KEONE R204 KALIN/N0486F370 R204 HID DCT ONARA DCT DOLIB Y173 PUDUR/N0478F390 Y173 UBGAN Y161 OVNOM H652 BOREE |
| Aircraft | B77W/H-SDE2FGHIJ1J3J5M1P2RWXYZ/LB1D1 |
Departure
| Time | 2026-05-04 02:41 |
|---|---|
| Airport | Incheon International Airport (RKSI) |
Arrival
| Time | N/A |
|---|---|
| Airport | Sydney Kingsford Smith International Airport (YSSY) |
| Time | Latitude | Longitude | Altitude | Speed | Heading |
|---|---|---|---|---|---|
| 2026-05-04 02:11 | 37.46740 | 126.43883 | 35 ft | 0 kts | 32° |
| 2026-05-04 02:20 | 37.46738 | 126.43883 | 35 ft | 1 kts | 33° |
| 2026-05-04 02:20 | 37.46727 | 126.43871 | 35 ft | 2 kts | 41° |
| 2026-05-04 02:20 | 37.46715 | 126.43859 | 35 ft | 2 kts | 34° |
| 2026-05-04 02:20 | 37.46703 | 126.43849 | 35 ft | 2 kts | 31° |
| 2026-05-04 02:21 | 37.46690 | 126.43839 | 35 ft | 2 kts | 32° |
| 2026-05-04 02:21 | 37.46677 | 126.43829 | 35 ft | 2 kts | 33° |
| 2026-05-04 02:21 | 37.46665 | 126.43819 | 35 ft | 2 kts | 44° |
| 2026-05-04 02:21 | 37.46657 | 126.43803 | 35 ft | 2 kts | 74° |
| 2026-05-04 02:22 | 37.46653 | 126.43785 | 35 ft | 2 kts | 74° |
| 2026-05-04 02:22 | 37.46649 | 126.43767 | 35 ft | 1 kts | 71° |
| 2026-05-04 02:22 | 37.46646 | 126.43755 | 35 ft | 2 kts | 69° |
| 2026-05-04 02:22 | 37.46640 | 126.43738 | 35 ft | 2 kts | 64° |
| 2026-05-04 02:23 | 37.46633 | 126.43721 | 35 ft | 2 kts | 59° |
| 2026-05-04 02:23 | 37.46625 | 126.43707 | 35 ft | 0 kts | 55° |
| 2026-05-04 02:23 | 37.46624 | 126.43705 | 35 ft | 0 kts | 54° |
| 2026-05-04 02:24 | 37.46625 | 126.43706 | 35 ft | 0 kts | 54° |
| 2026-05-04 02:25 | 37.46632 | 126.43719 | 35 ft | 3 kts | 54° |
| 2026-05-04 02:25 | 37.46648 | 126.43758 | 35 ft | 6 kts | 74° |
| 2026-05-04 02:25 | 37.46642 | 126.43816 | 35 ft | 7 kts | 124° |
| 2026-05-04 02:25 | 37.46594 | 126.43864 | 35 ft | 9 kts | 144° |
| 2026-05-04 02:26 | 37.46545 | 126.43908 | 35 ft | 8 kts | 144° |
| 2026-05-04 02:26 | 37.46500 | 126.43948 | 35 ft | 7 kts | 144° |
| 2026-05-04 02:26 | 37.46448 | 126.43994 | 35 ft | 10 kts | 144° |
| 2026-05-04 02:26 | 37.46386 | 126.44048 | 35 ft | 10 kts | 144° |
| 2026-05-04 02:27 | 37.46351 | 126.44115 | 35 ft | 9 kts | 88° |
| 2026-05-04 02:27 | 37.46377 | 126.44186 | 35 ft | 9 kts | 54° |
| 2026-05-04 02:27 | 37.46415 | 126.44253 | 35 ft | 9 kts | 54° |
| 2026-05-04 02:27 | 37.46453 | 126.44321 | 35 ft | 9 kts | 54° |
| 2026-05-04 02:28 | 37.46493 | 126.44392 | 35 ft | 9 kts | 54° |
| 2026-05-04 02:28 | 37.46531 | 126.44465 | 35 ft | 9 kts | 63° |
| 2026-05-04 02:28 | 37.46565 | 126.44541 | 35 ft | 10 kts | 54° |
| 2026-05-04 02:28 | 37.46582 | 126.44617 | 35 ft | 9 kts | 114° |
| 2026-05-04 02:29 | 37.46530 | 126.44678 | 35 ft | 11 kts | 144° |
| 2026-05-04 02:29 | 37.46459 | 126.44740 | 35 ft | 13 kts | 144° |
| 2026-05-04 02:29 | 37.46374 | 126.44817 | 35 ft | 16 kts | 144° |
| 2026-05-04 02:29 | 37.46277 | 126.44902 | 35 ft | 18 kts | 144° |
| 2026-05-04 02:30 | 37.46168 | 126.45000 | 35 ft | 19 kts | 144° |
| 2026-05-04 02:30 | 37.46063 | 126.45094 | 35 ft | 17 kts | 144° |
| 2026-05-04 02:30 | 37.45967 | 126.45179 | 35 ft | 15 kts | 144° |
| 2026-05-04 02:30 | 37.45880 | 126.45257 | 35 ft | 14 kts | 144° |
| 2026-05-04 02:31 | 37.45797 | 126.45331 | 35 ft | 14 kts | 144° |
| 2026-05-04 02:31 | 37.45718 | 126.45402 | 35 ft | 13 kts | 144° |
| 2026-05-04 02:31 | 37.45643 | 126.45468 | 35 ft | 12 kts | 144° |
| 2026-05-04 02:31 | 37.45573 | 126.45531 | 35 ft | 12 kts | 144° |
| 2026-05-04 02:32 | 37.45507 | 126.45589 | 35 ft | 11 kts | 144° |
| 2026-05-04 02:32 | 37.45443 | 126.45647 | 35 ft | 11 kts | 144° |
| 2026-05-04 02:32 | 37.45381 | 126.45702 | 35 ft | 10 kts | 144° |
| 2026-05-04 02:32 | 37.45318 | 126.45758 | 35 ft | 11 kts | 144° |
| 2026-05-04 02:33 | 37.45301 | 126.45837 | 35 ft | 9 kts | 68° |
| 2026-05-04 02:33 | 37.45337 | 126.45905 | 35 ft | 8 kts | 54° |
| 2026-05-04 02:33 | 37.45370 | 126.45964 | 35 ft | 7 kts | 54° |
| 2026-05-04 02:33 | 37.45404 | 126.46023 | 35 ft | 8 kts | 54° |
| 2026-05-04 02:34 | 37.45439 | 126.46058 | 35 ft | 6 kts | 5° |
| 2026-05-04 02:34 | 37.45460 | 126.46049 | 35 ft | 0 kts | 324° |
| 2026-05-04 02:34 | 37.45461 | 126.46049 | 35 ft | 2 kts | 324° |
| 2026-05-04 02:34 | 37.45561 | 126.45959 | 35 ft | 27 kts | 324° |
| 2026-05-04 02:35 | 37.45672 | 126.45861 | 35 ft | 16 kts | 324° |
| 2026-05-04 02:35 | 37.45758 | 126.45785 | 35 ft | 13 kts | 324° |
| 2026-05-04 02:35 | 37.45832 | 126.45718 | 35 ft | 12 kts | 324° |
| 2026-05-04 02:35 | 37.45902 | 126.45681 | 35 ft | 10 kts | 3° |
| 2026-05-04 02:36 | 37.45955 | 126.45726 | 35 ft | 8 kts | 53° |
| 2026-05-04 02:36 | 37.45989 | 126.45785 | 35 ft | 8 kts | 54° |
| 2026-05-04 02:36 | 37.46005 | 126.45852 | 35 ft | 7 kts | 102° |
| 2026-05-04 02:36 | 37.45969 | 126.45907 | 35 ft | 8 kts | 143° |
| 2026-05-04 02:37 | 37.45911 | 126.45958 | 35 ft | 11 kts | 144° |
| 2026-05-04 02:37 | 37.45841 | 126.46019 | 35 ft | 12 kts | 144° |
| 2026-05-04 02:37 | 37.45764 | 126.46088 | 35 ft | 13 kts | 144° |
| 2026-05-04 02:37 | 37.45690 | 126.46153 | 35 ft | 12 kts | 144° |
| 2026-05-04 02:38 | 37.45626 | 126.46210 | 35 ft | 10 kts | 144° |
| 2026-05-04 02:38 | 37.45566 | 126.46252 | 35 ft | 8 kts | 178° |
| 2026-05-04 02:38 | 37.45517 | 126.46220 | 35 ft | 7 kts | 231° |
| 2026-05-04 02:38 | 37.45488 | 126.46170 | 35 ft | 6 kts | 234° |
| 2026-05-04 02:39 | 37.45461 | 126.46124 | 35 ft | 6 kts | 234° |
| 2026-05-04 02:39 | 37.45449 | 126.46074 | 35 ft | 6 kts | 285° |
| 2026-05-04 02:39 | 37.45470 | 126.46041 | 35 ft | 0 kts | 323° |
| 2026-05-04 02:39 | 37.45471 | 126.46041 | 35 ft | 1 kts | 323° |
| 2026-05-04 02:40 | 37.45585 | 126.45937 | 35 ft | 51 kts | 324° |
| 2026-05-04 02:40 | 37.46069 | 126.45507 | 35 ft | 117 kts | 324° |
| 2026-05-04 02:40 | 37.46894 | 126.44775 | 36 ft | 172 kts | 324° |
| 2026-05-04 02:40 | 37.47941 | 126.43838 | 414 ft | 190 kts | 325° |
| 2026-05-04 02:41 | 37.49054 | 126.42995 | 1344 ft | 186 kts | 327° |
| 2026-05-04 02:41 | 37.50088 | 126.42179 | 2270 ft | 176 kts | 326° |
| 2026-05-04 02:41 | 37.51134 | 126.41318 | 2725 ft | 184 kts | 326° |
| 2026-05-04 02:41 | 37.52201 | 126.40427 | 3258 ft | 189 kts | 326° |
| 2026-05-04 02:42 | 37.53361 | 126.39459 | 3586 ft | 205 kts | 326° |
| 2026-05-04 02:42 | 37.54583 | 126.38435 | 3983 ft | 218 kts | 326° |
| 2026-05-04 02:42 | 37.55857 | 126.37443 | 4700 ft | 218 kts | 335° |
| 2026-05-04 02:42 | 37.57303 | 126.36835 | 5295 ft | 223 kts | 342° |
| 2026-05-04 02:43 | 37.58807 | 126.36300 | 5448 ft | 225 kts | 342° |
| 2026-05-04 02:43 | 37.60313 | 126.35765 | 5456 ft | 223 kts | 342° |
| 2026-05-04 02:43 | 37.61850 | 126.35441 | 5445 ft | 224 kts | 359° |
| 2026-05-04 02:43 | 37.63353 | 126.35906 | 5453 ft | 231 kts | 22° |
| 2026-05-04 02:44 | 37.64675 | 126.37234 | 5448 ft | 258 kts | 47° |
| 2026-05-04 02:44 | 37.65529 | 126.39311 | 5462 ft | 272 kts | 64° |
| 2026-05-04 02:44 | 37.66156 | 126.41562 | 5453 ft | 274 kts | 65° |
| 2026-05-04 02:44 | 37.66665 | 126.43974 | 5744 ft | 290 kts | 83° |
| 2026-05-04 02:45 | 37.66418 | 126.46439 | 6702 ft | 287 kts | 101° |
| 2026-05-04 02:45 | 37.65823 | 126.48846 | 7346 ft | 293 kts | 105° |
| 2026-05-04 02:45 | 37.65120 | 126.51314 | 7943 ft | 299 kts | 106° |
| 2026-05-04 02:45 | 37.64362 | 126.53758 | 8575 ft | 304 kts | 115° |
| 2026-05-04 02:46 | 37.63052 | 126.55913 | 9125 ft | 314 kts | 132° |
| 2026-05-04 02:46 | 37.61456 | 126.57810 | 9781 ft | 316 kts | 136° |
| 2026-05-04 02:46 | 37.59809 | 126.59677 | 10313 ft | 324 kts | 136° |
| 2026-05-04 02:46 | 37.58081 | 126.61636 | 10589 ft | 341 kts | 136° |
| 2026-05-04 02:47 | 37.56294 | 126.63674 | 10850 ft | 358 kts | 136° |
| 2026-05-04 02:47 | 37.54419 | 126.65817 | 11171 ft | 373 kts | 136° |
| 2026-05-04 02:47 | 37.52439 | 126.68077 | 11452 ft | 391 kts | 137° |
| 2026-05-04 02:47 | 37.50367 | 126.70441 | 11824 ft | 405 kts | 137° |
| 2026-05-04 02:48 | 37.48258 | 126.72842 | 12362 ft | 415 kts | 137° |
| 2026-05-04 02:48 | 37.46103 | 126.75295 | 13013 ft | 421 kts | 137° |
| 2026-05-04 02:48 | 37.43922 | 126.77779 | 13659 ft | 427 kts | 137° |
| 2026-05-04 02:48 | 37.41713 | 126.80283 | 14380 ft | 432 kts | 139° |
| 2026-05-04 02:49 | 37.39334 | 126.82649 | 15027 ft | 439 kts | 142° |
| 2026-05-04 02:49 | 37.36881 | 126.84969 | 15689 ft | 444 kts | 143° |
| 2026-05-04 02:49 | 37.34415 | 126.87297 | 16399 ft | 448 kts | 142° |
| 2026-05-04 02:49 | 37.31916 | 126.89655 | 17035 ft | 455 kts | 142° |
| 2026-05-04 02:50 | 37.29346 | 126.92084 | 17651 ft | 461 kts | 142° |
| 2026-05-04 02:50 | 37.26784 | 126.94508 | 18279 ft | 466 kts | 142° |
| 2026-05-04 02:50 | 37.24273 | 126.96883 | 18900 ft | 472 kts | 143° |
| 2026-05-04 02:50 | 37.21602 | 126.99407 | 19626 ft | 475 kts | 143° |
| 2026-05-04 02:51 | 37.18962 | 127.01901 | 20338 ft | 478 kts | 143° |
| 2026-05-04 02:51 | 37.16285 | 127.04425 | 20963 ft | 483 kts | 143° |
| 2026-05-04 02:51 | 37.13607 | 127.06948 | 21532 ft | 489 kts | 144° |
| 2026-05-04 02:51 | 37.10881 | 127.09515 | 22158 ft | 492 kts | 144° |
| 2026-05-04 02:52 | 37.08131 | 127.12103 | 22800 ft | 495 kts | 144° |
| 2026-05-04 02:52 | 37.05378 | 127.14690 | 23382 ft | 499 kts | 144° |
| 2026-05-04 02:52 | 37.02550 | 127.17345 | 23923 ft | 504 kts | 144° |
| 2026-05-04 02:52 | 36.99719 | 127.20002 | 24445 ft | 508 kts | 145° |
| 2026-05-04 02:53 | 36.96922 | 127.22623 | 24992 ft | 511 kts | 145° |
| 2026-05-04 02:53 | 36.94050 | 127.25314 | 25525 ft | 514 kts | 145° |
| 2026-05-04 02:53 | 36.91165 | 127.28012 | 26049 ft | 517 kts | 146° |
| 2026-05-04 02:53 | 36.88281 | 127.30665 | 26540 ft | 520 kts | 146° |
| 2026-05-04 02:54 | 36.85339 | 127.33366 | 26994 ft | 524 kts | 147° |
| 2026-05-04 02:54 | 36.82393 | 127.36053 | 27434 ft | 527 kts | 147° |
| 2026-05-04 02:54 | 36.79416 | 127.38774 | 27889 ft | 531 kts | 147° |
| 2026-05-04 02:54 | 36.76443 | 127.41483 | 28357 ft | 533 kts | 148° |
| 2026-05-04 02:55 | 36.70419 | 127.46990 | 29299 ft | 537 kts | 148° |
| 2026-05-04 02:55 | 36.67405 | 127.49712 | 29819 ft | 537 kts | 149° |
| 2026-05-04 02:55 | 36.64370 | 127.52464 | 30422 ft | 535 kts | 149° |
| 2026-05-04 02:56 | 36.61381 | 127.55189 | 31064 ft | 532 kts | 149° |
| 2026-05-04 02:56 | 36.58400 | 127.57910 | 31615 ft | 529 kts | 150° |
| 2026-05-04 02:56 | 36.55436 | 127.60600 | 32116 ft | 527 kts | 151° |
| 2026-05-04 02:56 | 36.52471 | 127.63283 | 32667 ft | 524 kts | 152° |
| 2026-05-04 02:57 | 36.49507 | 127.65958 | 32919 ft | 527 kts | 153° |
| 2026-05-04 02:57 | 36.43525 | 127.71345 | 32925 ft | 535 kts | 153° |
| 2026-05-04 02:58 | 36.37516 | 127.76751 | 32915 ft | 534 kts | 153° |
| 2026-05-04 02:58 | 36.31470 | 127.82182 | 32919 ft | 532 kts | 154° |
| 2026-05-04 02:59 | 36.25495 | 127.87537 | 32922 ft | 531 kts | 154° |
| 2026-05-04 02:59 | 36.19472 | 127.92924 | 32917 ft | 533 kts | 154° |
| 2026-05-04 03:00 | 36.13465 | 127.98289 | 32916 ft | 532 kts | 154° |
| 2026-05-04 03:00 | 36.07472 | 128.03632 | 32912 ft | 529 kts | 155° |
| 2026-05-04 03:01 | 36.01493 | 128.08948 | 32916 ft | 529 kts | 155° |
| 2026-05-04 03:01 | 35.95528 | 128.14243 | 32919 ft | 530 kts | 155° |
| 2026-05-04 03:02 | 35.89574 | 128.19525 | 32918 ft | 524 kts | 156° |
| 2026-05-04 03:02 | 35.83608 | 128.24797 | 32920 ft | 526 kts | 156° |
| 2026-05-04 03:03 | 35.77669 | 128.30039 | 32936 ft | 526 kts | 157° |
| 2026-05-04 03:03 | 35.71710 | 128.35289 | 32941 ft | 525 kts | 157° |
| 2026-05-04 03:04 | 35.65790 | 128.40494 | 32953 ft | 525 kts | 158° |
| 2026-05-04 03:04 | 35.59840 | 128.45717 | 32959 ft | 522 kts | 158° |
| 2026-05-04 03:05 | 35.53982 | 128.50851 | 32950 ft | 517 kts | 159° |
| 2026-05-04 03:05 | 35.48080 | 128.55870 | 32952 ft | 507 kts | 164° |
| 2026-05-04 03:06 | 35.41863 | 128.59734 | 32962 ft | 500 kts | 169° |
| 2026-05-04 03:06 | 35.35684 | 128.63414 | 32964 ft | 489 kts | 169° |
| 2026-05-04 03:07 | 35.29556 | 128.67046 | 32937 ft | 483 kts | 170° |
| 2026-05-04 03:07 | 35.23484 | 128.70631 | 32940 ft | 487 kts | 171° |
| 2026-05-04 03:08 | 35.17401 | 128.74225 | 32932 ft | 484 kts | 171° |
| 2026-05-04 03:08 | 35.11359 | 128.77792 | 32925 ft | 478 kts | 171° |
| 2026-05-04 03:09 | 35.05374 | 128.81323 | 32933 ft | 477 kts | 171° |
| 2026-05-04 03:09 | 34.99416 | 128.85056 | 32923 ft | 489 kts | 166° |
| 2026-05-04 03:10 | 34.93679 | 128.89386 | 32934 ft | 488 kts | 165° |
| 2026-05-04 03:10 | 34.87911 | 128.93749 | 32941 ft | 488 kts | 165° |
| 2026-05-04 03:11 | 34.82137 | 128.98105 | 32959 ft | 484 kts | 165° |
| 2026-05-04 03:11 | 34.76424 | 129.02394 | 32957 ft | 489 kts | 165° |
| 2026-05-04 03:12 | 34.70628 | 129.06741 | 32955 ft | 492 kts | 165° |
| 2026-05-04 03:12 | 34.64758 | 129.11140 | 32963 ft | 493 kts | 165° |
| 2026-05-04 03:13 | 34.58922 | 129.15509 | 32967 ft | 489 kts | 164° |
| 2026-05-04 03:13 | 34.53158 | 129.19817 | 32970 ft | 488 kts | 164° |
| 2026-05-04 03:14 | 34.47370 | 129.24132 | 32979 ft | 488 kts | 165° |
| 2026-05-04 03:14 | 34.41550 | 129.28462 | 32997 ft | 490 kts | 164° |
| 2026-05-04 03:15 | 34.35778 | 129.32753 | 32997 ft | 489 kts | 164° |
| 2026-05-04 03:15 | 34.29962 | 129.37067 | 32995 ft | 491 kts | 164° |
| 2026-05-04 03:16 | 34.24143 | 129.41380 | 32998 ft | 488 kts | 164° |
| 2026-05-04 03:16 | 34.18366 | 129.45653 | 32987 ft | 486 kts | 164° |
| 2026-05-04 03:17 | 34.12604 | 129.49905 | 33010 ft | 488 kts | 164° |
| 2026-05-04 03:17 | 34.06801 | 129.54179 | 33000 ft | 489 kts | 163° |
| 2026-05-04 03:18 | 34.01031 | 129.58435 | 33012 ft | 485 kts | 164° |
| 2026-05-04 03:18 | 33.95246 | 129.62677 | 33008 ft | 489 kts | 163° |
| 2026-05-04 03:19 | 33.89438 | 129.66942 | 32981 ft | 487 kts | 164° |
| 2026-05-04 03:19 | 33.83654 | 129.71181 | 33004 ft | 483 kts | 164° |
| 2026-05-04 03:20 | 33.77896 | 129.75388 | 33011 ft | 486 kts | 164° |
| 2026-05-04 03:20 | 33.74970 | 129.77359 | 33012 ft | 473 kts | 170° |
| 2026-05-04 03:20 | 33.72018 | 129.78803 | 33004 ft | 456 kts | 176° |
| 2026-05-04 03:21 | 33.65969 | 129.81233 | 33017 ft | 457 kts | 176° |
| 2026-05-04 03:21 | 33.59964 | 129.83640 | 33016 ft | 455 kts | 176° |
| 2026-05-04 03:22 | 33.53942 | 129.86046 | 33025 ft | 457 kts | 176° |
| 2026-05-04 03:22 | 33.47923 | 129.88454 | 33019 ft | 456 kts | 176° |
| 2026-05-04 03:23 | 33.41924 | 129.90854 | 33018 ft | 453 kts | 176° |
| 2026-05-04 03:23 | 33.35851 | 129.93269 | 33020 ft | 461 kts | 176° |
| 2026-05-04 03:24 | 33.29828 | 129.95674 | 33024 ft | 455 kts | 175° |
| 2026-05-04 03:24 | 33.23778 | 129.98080 | 33010 ft | 458 kts | 176° |
| 2026-05-04 03:25 | 33.17735 | 130.00475 | 33028 ft | 458 kts | 175° |
| 2026-05-04 03:25 | 33.11673 | 130.02861 | 33037 ft | 460 kts | 175° |
| 2026-05-04 03:26 | 33.05557 | 130.05267 | 33035 ft | 461 kts | 175° |
| 2026-05-04 03:26 | 32.99539 | 130.07638 | 33037 ft | 454 kts | 175° |
| 2026-05-04 03:27 | 32.93504 | 130.10004 | 33041 ft | 458 kts | 175° |
| 2026-05-04 03:27 | 32.87425 | 130.12384 | 33040 ft | 459 kts | 174° |
| 2026-05-04 03:28 | 32.81316 | 130.14775 | 33050 ft | 462 kts | 175° |
| 2026-05-04 03:28 | 32.75309 | 130.17129 | 33042 ft | 454 kts | 175° |
| 2026-05-04 03:29 | 32.69234 | 130.19493 | 33042 ft | 462 kts | 175° |
| 2026-05-04 03:29 | 32.63120 | 130.21875 | 33039 ft | 464 kts | 175° |
| 2026-05-04 03:30 | 32.57018 | 130.24255 | 33036 ft | 463 kts | 174° |
| 2026-05-04 03:30 | 32.50865 | 130.26688 | 33042 ft | 464 kts | 174° |
| 2026-05-04 03:31 | 32.44797 | 130.29091 | 33042 ft | 461 kts | 174° |
| 2026-05-04 03:31 | 32.38689 | 130.31494 | 33031 ft | 464 kts | 174° |
| 2026-05-04 03:32 | 32.32533 | 130.33919 | 33028 ft | 462 kts | 174° |
| 2026-05-04 03:32 | 32.26419 | 130.36322 | 33030 ft | 462 kts | 174° |
| 2026-05-04 03:33 | 32.20330 | 130.38709 | 33026 ft | 464 kts | 174° |
| 2026-05-04 03:33 | 32.14211 | 130.41109 | 33037 ft | 463 kts | 174° |
| 2026-05-04 03:34 | 32.08126 | 130.43481 | 33027 ft | 462 kts | 174° |
| 2026-05-04 03:34 | 32.01941 | 130.45872 | 33029 ft | 464 kts | 174° |
| 2026-05-04 03:35 | 31.95814 | 130.48242 | 33024 ft | 463 kts | 174° |
| 2026-05-04 03:35 | 31.89691 | 130.50607 | 33022 ft | 461 kts | 174° |
| 2026-05-04 03:36 | 31.83523 | 130.52980 | 33041 ft | 467 kts | 174° |
| 2026-05-04 03:36 | 31.77432 | 130.55330 | 33044 ft | 466 kts | 174° |
| 2026-05-04 03:37 | 31.71239 | 130.57710 | 33042 ft | 466 kts | 174° |
| 2026-05-04 03:37 | 31.65077 | 130.60053 | 33037 ft | 466 kts | 174° |
| 2026-05-04 03:38 | 31.58905 | 130.62378 | 33045 ft | 464 kts | 173° |
| 2026-05-04 03:38 | 31.52726 | 130.64700 | 33046 ft | 467 kts | 173° |
| 2026-05-04 03:39 | 31.46583 | 130.67013 | 33026 ft | 463 kts | 174° |
| 2026-05-04 03:39 | 31.40395 | 130.69334 | 33025 ft | 465 kts | 174° |
| 2026-05-04 03:40 | 31.34246 | 130.71643 | 33025 ft | 463 kts | 174° |
| 2026-05-04 03:40 | 31.28090 | 130.73944 | 33024 ft | 466 kts | 173° |
| 2026-05-04 03:41 | 31.21937 | 130.76247 | 33023 ft | 465 kts | 173° |
| 2026-05-04 03:41 | 31.15762 | 130.78551 | 33019 ft | 466 kts | 173° |
| 2026-05-04 03:42 | 31.09605 | 130.80849 | 33025 ft | 463 kts | 173° |
| 2026-05-04 03:42 | 31.03460 | 130.83134 | 33026 ft | 465 kts | 173° |
| 2026-05-04 03:43 | 30.97265 | 130.85435 | 33026 ft | 470 kts | 173° |
| 2026-05-04 03:43 | 30.91024 | 130.87753 | 33025 ft | 466 kts | 173° |
| 2026-05-04 03:44 | 30.84819 | 130.90051 | 33035 ft | 472 kts | 173° |
| 2026-05-04 03:44 | 30.78582 | 130.92363 | 33034 ft | 469 kts | 173° |
| 2026-05-04 03:45 | 30.72357 | 130.94667 | 33034 ft | 470 kts | 172° |
| 2026-05-04 03:45 | 30.66102 | 130.96979 | 33033 ft | 472 kts | 172° |
| 2026-05-04 03:46 | 30.59912 | 130.99585 | 33021 ft | 483 kts | 163° |
| 2026-05-04 03:46 | 30.54120 | 131.03729 | 33028 ft | 493 kts | 157° |
| 2026-05-04 03:47 | 30.48359 | 131.08095 | 33025 ft | 496 kts | 156° |
| 2026-05-04 03:47 | 30.42592 | 131.12454 | 33025 ft | 498 kts | 156° |
| 2026-05-04 03:48 | 30.36792 | 131.16832 | 33021 ft | 495 kts | 156° |
| 2026-05-04 03:48 | 30.31016 | 131.21179 | 33025 ft | 498 kts | 156° |
| 2026-05-04 03:49 | 30.25201 | 131.25551 | 33023 ft | 498 kts | 156° |
| 2026-05-04 03:49 | 30.19423 | 131.29886 | 33026 ft | 497 kts | 156° |
| 2026-05-04 03:49 | 30.16495 | 131.32072 | 33135 ft | 504 kts | 156° |
| 2026-05-04 03:50 | 30.13569 | 131.34258 | 33655 ft | 503 kts | 156° |
| 2026-05-04 03:50 | 30.10624 | 131.36461 | 34481 ft | 496 kts | 156° |
| 2026-05-04 03:50 | 30.07753 | 131.38606 | 34992 ft | 495 kts | 156° |
| 2026-05-04 03:51 | 30.01966 | 131.42918 | 35021 ft | 494 kts | 156° |
| 2026-05-04 03:51 | 29.96182 | 131.47227 | 35023 ft | 495 kts | 156° |
| 2026-05-04 03:52 | 29.90395 | 131.51535 | 35029 ft | 495 kts | 156° |
| 2026-05-04 03:52 | 29.84600 | 131.55843 | 35043 ft | 495 kts | 156° |
| 2026-05-04 03:53 | 29.78841 | 131.60117 | 35043 ft | 497 kts | 156° |
| 2026-05-04 03:53 | 29.73052 | 131.64409 | 35038 ft | 493 kts | 156° |
| 2026-05-04 03:54 | 29.67241 | 131.68707 | 35024 ft | 498 kts | 156° |
| 2026-05-04 03:54 | 29.61449 | 131.72990 | 35027 ft | 496 kts | 156° |
| 2026-05-04 03:55 | 29.55708 | 131.77400 | 35029 ft | 500 kts | 153° |
| 2026-05-04 03:55 | 29.50083 | 131.82120 | 35031 ft | 502 kts | 153° |
| 2026-05-04 03:56 | 29.44452 | 131.86822 | 35029 ft | 499 kts | 153° |
| 2026-05-04 03:56 | 29.38849 | 131.91475 | 35033 ft | 500 kts | 153° |
| 2026-05-04 03:57 | 29.33208 | 131.96144 | 35027 ft | 499 kts | 153° |
| 2026-05-04 03:57 | 29.27552 | 132.00810 | 35032 ft | 501 kts | 152° |
| 2026-05-04 03:58 | 29.19098 | 132.07770 | 35035 ft | 504 kts | 152° |
| 2026-05-04 03:58 | 29.13431 | 132.12428 | 35030 ft | 498 kts | 152° |
| 2026-05-04 03:59 | 29.07787 | 132.17056 | 35030 ft | 502 kts | 152° |
| 2026-05-04 03:59 | 29.02140 | 132.21687 | 35031 ft | 498 kts | 152° |
| 2026-05-04 04:00 | 28.96458 | 132.26332 | 35033 ft | 501 kts | 152° |
| 2026-05-04 04:00 | 28.90813 | 132.30943 | 35032 ft | 501 kts | 152° |
| 2026-05-04 04:01 | 28.85125 | 132.35584 | 35045 ft | 501 kts | 152° |
| 2026-05-04 04:01 | 28.79472 | 132.40190 | 35043 ft | 501 kts | 152° |
| 2026-05-04 04:02 | 28.73756 | 132.44840 | 35046 ft | 502 kts | 151° |
| 2026-05-04 04:02 | 28.68098 | 132.49437 | 35045 ft | 503 kts | 152° |
| 2026-05-04 04:03 | 28.62414 | 132.54050 | 35045 ft | 503 kts | 151° |
| 2026-05-04 04:03 | 28.56667 | 132.58705 | 35046 ft | 505 kts | 151° |
| 2026-05-04 04:04 | 28.50958 | 132.63325 | 35046 ft | 504 kts | 151° |
| 2026-05-04 04:04 | 28.45240 | 132.67946 | 35030 ft | 502 kts | 152° |
| 2026-05-04 04:05 | 28.39541 | 132.72543 | 35033 ft | 505 kts | 152° |
| 2026-05-04 04:05 | 28.33847 | 132.77132 | 35026 ft | 503 kts | 151° |
| 2026-05-04 04:06 | 28.28130 | 132.81726 | 35021 ft | 502 kts | 151° |
| 2026-05-04 04:06 | 28.22414 | 132.86314 | 35022 ft | 503 kts | 151° |
| 2026-05-04 04:07 | 28.16721 | 132.90877 | 35019 ft | 502 kts | 151° |
| 2026-05-04 04:07 | 28.11000 | 132.95454 | 35016 ft | 504 kts | 150° |
| 2026-05-04 04:08 | 28.05288 | 133.00021 | 35014 ft | 503 kts | 150° |
| 2026-05-04 04:08 | 27.99604 | 133.04559 | 35010 ft | 502 kts | 150° |
| 2026-05-04 04:09 | 27.93919 | 133.09093 | 35010 ft | 500 kts | 150° |
| 2026-05-04 04:09 | 27.88183 | 133.13657 | 35015 ft | 504 kts | 150° |
| 2026-05-04 04:10 | 27.82480 | 133.18204 | 35012 ft | 501 kts | 150° |
| 2026-05-04 04:10 | 27.76755 | 133.22763 | 35012 ft | 505 kts | 150° |
| 2026-05-04 04:11 | 27.71047 | 133.27303 | 35019 ft | 504 kts | 150° |
| 2026-05-04 04:11 | 27.65289 | 133.31877 | 35013 ft | 504 kts | 150° |
| 2026-05-04 04:12 | 27.59562 | 133.36420 | 35012 ft | 504 kts | 150° |
| 2026-05-04 04:12 | 27.53814 | 133.40974 | 35013 ft | 505 kts | 150° |
| 2026-05-04 04:13 | 27.48088 | 133.45505 | 35013 ft | 504 kts | 149° |
| 2026-05-04 04:13 | 27.42313 | 133.50067 | 35013 ft | 505 kts | 149° |
| 2026-05-04 04:14 | 27.36557 | 133.54610 | 35019 ft | 505 kts | 149° |
| 2026-05-04 04:14 | 27.30816 | 133.59132 | 35014 ft | 505 kts | 149° |
| 2026-05-04 04:15 | 27.25057 | 133.63666 | 35015 ft | 505 kts | 149° |
| 2026-05-04 04:15 | 27.19280 | 133.68207 | 35007 ft | 506 kts | 149° |
| 2026-05-04 04:16 | 27.13508 | 133.72739 | 35009 ft | 507 kts | 149° |
| 2026-05-04 04:16 | 27.07750 | 133.77254 | 35014 ft | 506 kts | 149° |
| 2026-05-04 04:17 | 27.01997 | 133.81758 | 35011 ft | 505 kts | 149° |
| 2026-05-04 04:17 | 26.96194 | 133.86296 | 35011 ft | 506 kts | 149° |
| 2026-05-04 04:18 | 26.90454 | 133.90779 | 35013 ft | 508 kts | 149° |
| 2026-05-04 04:18 | 26.84644 | 133.95312 | 35011 ft | 506 kts | 149° |
| 2026-05-04 04:19 | 26.78854 | 133.99823 | 35014 ft | 506 kts | 149° |
| 2026-05-04 04:19 | 26.73063 | 134.04329 | 35011 ft | 506 kts | 149° |
| 2026-05-04 04:20 | 26.67289 | 134.08813 | 35013 ft | 506 kts | 149° |
| 2026-05-04 04:20 | 26.61496 | 134.13307 | 35011 ft | 505 kts | 149° |
| 2026-05-04 04:21 | 26.55744 | 134.17764 | 35016 ft | 506 kts | 149° |
| 2026-05-04 04:21 | 26.49944 | 134.22253 | 35010 ft | 504 kts | 149° |
| 2026-05-04 04:22 | 26.44174 | 134.26712 | 35004 ft | 504 kts | 149° |
| 2026-05-04 04:22 | 26.38414 | 134.31157 | 35003 ft | 504 kts | 149° |
| 2026-05-04 04:23 | 26.32663 | 134.35590 | 34998 ft | 504 kts | 149° |
| 2026-05-04 04:23 | 26.26876 | 134.40045 | 34999 ft | 504 kts | 149° |
| 2026-05-04 04:24 | 26.21116 | 134.44476 | 35002 ft | 504 kts | 149° |
| 2026-05-04 04:24 | 26.15352 | 134.48903 | 34998 ft | 506 kts | 148° |
| 2026-05-04 04:25 | 26.09555 | 134.53351 | 34997 ft | 504 kts | 149° |
| 2026-05-04 04:25 | 26.03767 | 134.57785 | 34995 ft | 505 kts | 148° |
| 2026-05-04 04:26 | 25.97994 | 134.62204 | 34995 ft | 504 kts | 148° |
| 2026-05-04 04:26 | 25.92214 | 134.66621 | 34992 ft | 505 kts | 149° |
| 2026-05-04 04:27 | 25.86436 | 134.71033 | 34993 ft | 504 kts | 149° |
| 2026-05-04 04:27 | 25.80635 | 134.75456 | 34994 ft | 504 kts | 149° |
| 2026-05-04 04:28 | 25.74863 | 134.79852 | 34994 ft | 505 kts | 149° |
| 2026-05-04 04:28 | 25.69076 | 134.84255 | 34996 ft | 505 kts | 149° |
| 2026-05-04 04:29 | 25.63278 | 134.88658 | 34994 ft | 506 kts | 149° |
| 2026-05-04 04:29 | 25.57499 | 134.93043 | 34999 ft | 506 kts | 148° |
| 2026-05-04 04:30 | 25.51658 | 134.97470 | 35000 ft | 507 kts | 149° |
| 2026-05-04 04:30 | 25.45560 | 135.01329 | 35004 ft | 503 kts | 156° |
| 2026-05-04 04:31 | 25.39339 | 135.04894 | 35007 ft | 503 kts | 156° |
| 2026-05-04 04:31 | 25.33147 | 135.08437 | 35005 ft | 504 kts | 156° |
| 2026-05-04 04:32 | 25.26920 | 135.11997 | 35006 ft | 503 kts | 155° |
| 2026-05-04 04:32 | 25.20650 | 135.15578 | 35007 ft | 504 kts | 155° |
| 2026-05-04 04:33 | 25.14408 | 135.19141 | 35010 ft | 505 kts | 155° |
| 2026-05-04 04:33 | 25.08189 | 135.22685 | 35014 ft | 506 kts | 155° |
| 2026-05-04 04:34 | 25.01943 | 135.26241 | 35014 ft | 505 kts | 155° |
| 2026-05-04 04:34 | 24.95717 | 135.29782 | 35015 ft | 504 kts | 155° |
| 2026-05-04 04:35 | 24.89451 | 135.33340 | 35016 ft | 504 kts | 155° |
| 2026-05-04 04:35 | 24.83236 | 135.36867 | 35017 ft | 504 kts | 155° |
| 2026-05-04 04:36 | 24.76999 | 135.40402 | 35017 ft | 504 kts | 155° |
| 2026-05-04 04:36 | 24.70728 | 135.43951 | 35017 ft | 505 kts | 155° |
| 2026-05-04 04:37 | 24.58255 | 135.51001 | 35017 ft | 504 kts | 155° |
| 2026-05-04 04:38 | 24.51986 | 135.54538 | 35017 ft | 505 kts | 155° |
| 2026-05-04 04:38 | 24.45757 | 135.58049 | 35017 ft | 504 kts | 155° |
| 2026-05-04 04:39 | 24.39508 | 135.61566 | 35017 ft | 504 kts | 155° |
| 2026-05-04 04:39 | 24.33234 | 135.65096 | 35018 ft | 505 kts | 156° |
| 2026-05-04 04:40 | 24.27002 | 135.68596 | 35010 ft | 504 kts | 156° |
| 2026-05-04 04:40 | 24.20728 | 135.72116 | 35011 ft | 505 kts | 156° |
| 2026-05-04 04:41 | 24.14485 | 135.75613 | 35011 ft | 504 kts | 156° |
| 2026-05-04 04:41 | 24.08244 | 135.79108 | 35011 ft | 504 kts | 156° |
| 2026-05-04 04:42 | 24.01978 | 135.82611 | 35012 ft | 505 kts | 156° |
| 2026-05-04 04:42 | 23.95747 | 135.86092 | 35012 ft | 504 kts | 155° |
| 2026-05-04 04:43 | 23.89473 | 135.89592 | 35012 ft | 504 kts | 156° |
| 2026-05-04 04:43 | 23.83209 | 135.93083 | 35012 ft | 504 kts | 156° |
| 2026-05-04 04:44 | 23.76954 | 135.96565 | 35012 ft | 505 kts | 155° |
| 2026-05-04 04:44 | 23.70702 | 136.00043 | 35012 ft | 504 kts | 156° |
| 2026-05-04 04:45 | 23.64465 | 136.03508 | 35013 ft | 504 kts | 156° |
| 2026-05-04 04:47 | 23.42539 | 136.15662 | 35014 ft | 504 kts | 155° |
| 2026-05-04 04:47 | 23.36288 | 136.19116 | 35014 ft | 504 kts | 155° |
| 2026-05-04 04:48 | 23.30048 | 136.22562 | 35014 ft | 504 kts | 155° |
| 2026-05-04 04:49 | 23.14371 | 136.31204 | 35015 ft | 504 kts | 155° |
| 2026-05-04 04:49 | 23.08126 | 136.34641 | 35015 ft | 504 kts | 155° |
| 2026-05-04 04:50 | 23.01858 | 136.38084 | 35012 ft | 504 kts | 155° |
| 2026-05-04 04:50 | 22.95620 | 136.41510 | 35012 ft | 505 kts | 155° |
| 2026-05-04 04:51 | 22.89356 | 136.44946 | 35016 ft | 504 kts | 155° |
| 2026-05-04 04:51 | 22.83094 | 136.48377 | 35016 ft | 503 kts | 155° |
| 2026-05-04 04:52 | 22.76835 | 136.51802 | 35017 ft | 502 kts | 155° |
| 2026-05-04 04:52 | 22.70616 | 136.55203 | 35017 ft | 503 kts | 155° |
| 2026-05-04 04:53 | 22.64330 | 136.58637 | 35017 ft | 503 kts | 155° |
| 2026-05-04 04:53 | 22.58107 | 136.62033 | 35017 ft | 503 kts | 155° |
| 2026-05-04 04:54 | 22.51852 | 136.65442 | 35014 ft | 503 kts | 156° |
| 2026-05-04 04:54 | 22.45576 | 136.68860 | 35011 ft | 502 kts | 156° |
| 2026-05-04 04:55 | 22.39333 | 136.72257 | 35011 ft | 502 kts | 155° |
| 2026-05-04 04:55 | 22.33077 | 136.75656 | 35011 ft | 502 kts | 155° |
| 2026-05-04 04:56 | 22.26835 | 136.79045 | 35011 ft | 502 kts | 155° |
| 2026-05-04 04:56 | 22.20603 | 136.82425 | 35014 ft | 502 kts | 155° |
| 2026-05-04 04:57 | 22.14322 | 136.85829 | 35018 ft | 503 kts | 155° |
| 2026-05-04 04:57 | 22.08090 | 136.89203 | 35015 ft | 502 kts | 155° |
| 2026-05-04 04:58 | 22.01815 | 136.92595 | 35014 ft | 502 kts | 155° |
| 2026-05-04 04:58 | 21.95565 | 136.95972 | 35013 ft | 502 kts | 155° |
| 2026-05-04 04:59 | 21.89308 | 136.99348 | 35010 ft | 502 kts | 155° |
| 2026-05-04 04:59 | 21.83068 | 137.02712 | 35007 ft | 502 kts | 155° |
| 2026-05-04 05:00 | 21.76849 | 137.06062 | 35006 ft | 502 kts | 155° |
| 2026-05-04 05:01 | 21.67430 | 137.11128 | 35009 ft | 502 kts | 155° |
| 2026-05-04 05:01 | 21.61204 | 137.14475 | 35002 ft | 501 kts | 155° |
| 2026-05-04 05:02 | 21.54935 | 137.17839 | 35003 ft | 501 kts | 155° |
| 2026-05-04 05:02 | 21.48678 | 137.21194 | 35002 ft | 503 kts | 155° |
| 2026-05-04 05:03 | 21.42406 | 137.24554 | 35000 ft | 501 kts | 155° |
| 2026-05-04 05:04 | 21.29890 | 137.31250 | 34996 ft | 502 kts | 155° |
| 2026-05-04 05:04 | 21.23646 | 137.34586 | 34994 ft | 502 kts | 155° |
| 2026-05-04 05:06 | 20.98565 | 137.47951 | 34995 ft | 502 kts | 155° |
| 2026-05-04 05:07 | 20.92306 | 137.51279 | 34996 ft | 502 kts | 155° |
| 2026-05-04 05:07 | 20.86063 | 137.54594 | 34994 ft | 502 kts | 155° |
| 2026-05-04 05:09 | 20.57851 | 137.69542 | 34991 ft | 502 kts | 155° |
| 2026-05-04 05:10 | 20.51595 | 137.72849 | 34992 ft | 502 kts | 155° |
| 2026-05-04 05:10 | 20.45305 | 137.76170 | 34989 ft | 503 kts | 155° |
| 2026-05-04 05:11 | 20.39047 | 137.79471 | 34988 ft | 502 kts | 155° |
| 2026-05-04 05:11 | 20.32778 | 137.82774 | 34985 ft | 502 kts | 155° |
| 2026-05-04 05:12 | 20.26511 | 137.86075 | 34983 ft | 502 kts | 155° |
| 2026-05-04 05:12 | 20.20242 | 137.89372 | 34979 ft | 501 kts | 156° |
| 2026-05-04 05:13 | 20.13977 | 137.92665 | 34981 ft | 502 kts | 155° |
| 2026-05-04 05:13 | 20.07742 | 137.95938 | 34976 ft | 501 kts | 155° |
| 2026-05-04 05:14 | 20.01459 | 137.99234 | 34969 ft | 501 kts | 156° |
| 2026-05-04 05:14 | 19.95073 | 138.02035 | 34972 ft | 499 kts | 161° |
| 2026-05-04 05:15 | 19.88586 | 138.04707 | 34971 ft | 498 kts | 161° |
| 2026-05-04 05:15 | 19.82073 | 138.07388 | 34973 ft | 499 kts | 161° |
| 2026-05-04 05:16 | 19.75603 | 138.10049 | 34972 ft | 498 kts | 161° |
| 2026-05-04 05:16 | 19.69142 | 138.12705 | 34972 ft | 500 kts | 161° |
| 2026-05-04 05:17 | 19.62651 | 138.15370 | 34974 ft | 500 kts | 161° |
| 2026-05-04 05:17 | 19.56119 | 138.18050 | 34976 ft | 498 kts | 161° |
| 2026-05-04 05:18 | 19.49665 | 138.20695 | 34978 ft | 499 kts | 161° |
| 2026-05-04 05:18 | 19.43137 | 138.23369 | 34975 ft | 499 kts | 161° |
| 2026-05-04 05:19 | 19.36674 | 138.26015 | 34975 ft | 500 kts | 161° |
| 2026-05-04 05:19 | 19.30180 | 138.28670 | 34979 ft | 500 kts | 161° |
| 2026-05-04 05:20 | 19.23668 | 138.31329 | 34977 ft | 500 kts | 161° |
| 2026-05-04 05:20 | 19.17151 | 138.33990 | 34978 ft | 501 kts | 161° |
| 2026-05-04 05:21 | 19.10644 | 138.36644 | 34976 ft | 501 kts | 161° |
| 2026-05-04 05:21 | 19.04137 | 138.39296 | 34975 ft | 500 kts | 161° |
| 2026-05-04 05:22 | 18.97639 | 138.41942 | 34975 ft | 499 kts | 161° |
| 2026-05-04 05:22 | 18.91129 | 138.44589 | 34971 ft | 500 kts | 161° |
| 2026-05-04 05:23 | 18.84661 | 138.47218 | 34971 ft | 500 kts | 161° |
| 2026-05-04 05:23 | 18.78132 | 138.49870 | 34972 ft | 501 kts | 161° |
| 2026-05-04 05:24 | 18.71612 | 138.52516 | 34969 ft | 502 kts | 161° |
| 2026-05-04 05:24 | 18.65100 | 138.55158 | 34968 ft | 500 kts | 161° |
| 2026-05-04 05:25 | 18.58565 | 138.57805 | 34968 ft | 502 kts | 161° |
| 2026-05-04 05:25 | 18.52063 | 138.60437 | 34970 ft | 502 kts | 161° |
| 2026-05-04 05:26 | 18.45555 | 138.63069 | 34971 ft | 500 kts | 161° |
| 2026-05-04 05:26 | 18.39019 | 138.65710 | 34963 ft | 501 kts | 162° |
| 2026-05-04 05:28 | 18.12904 | 138.76244 | 34952 ft | 502 kts | 162° |
| 2026-05-04 05:29 | 18.06374 | 138.78871 | 34950 ft | 501 kts | 162° |
| 2026-05-04 05:29 | 17.99848 | 138.81497 | 34951 ft | 502 kts | 162° |
| 2026-05-04 05:31 | 17.73766 | 138.91966 | 34958 ft | 501 kts | 162° |
| 2026-05-04 05:32 | 17.67224 | 138.94586 | 34956 ft | 501 kts | 162° |
| 2026-05-04 05:33 | 17.57432 | 138.98506 | 34952 ft | 501 kts | 162° |
| 2026-05-04 05:33 | 17.50932 | 139.01105 | 34950 ft | 501 kts | 162° |
| 2026-05-04 05:34 | 17.44413 | 139.03708 | 34948 ft | 502 kts | 162° |
| 2026-05-04 05:34 | 17.37851 | 139.06328 | 34948 ft | 501 kts | 162° |
| 2026-05-04 05:35 | 17.31357 | 139.08920 | 34951 ft | 501 kts | 162° |
| 2026-05-04 05:35 | 17.24818 | 139.11526 | 34951 ft | 500 kts | 162° |
| 2026-05-04 05:36 | 17.18316 | 139.14116 | 34952 ft | 500 kts | 162° |
| 2026-05-04 05:36 | 17.11795 | 139.16711 | 34952 ft | 500 kts | 162° |
| 2026-05-04 05:37 | 17.05279 | 139.19302 | 34951 ft | 501 kts | 162° |
| 2026-05-04 05:37 | 16.98770 | 139.21890 | 34951 ft | 499 kts | 162° |
| 2026-05-04 05:38 | 16.88970 | 139.25781 | 34951 ft | 500 kts | 162° |
| 2026-05-04 05:38 | 16.82455 | 139.28365 | 34950 ft | 499 kts | 162° |
| 2026-05-04 05:39 | 16.72731 | 139.32219 | 34945 ft | 497 kts | 162° |
| 2026-05-04 05:40 | 16.62983 | 139.36076 | 34945 ft | 498 kts | 162° |
| 2026-05-04 05:40 | 16.56479 | 139.38649 | 34946 ft | 497 kts | 162° |
| 2026-05-04 05:41 | 16.49979 | 139.41219 | 34944 ft | 497 kts | 162° |
| 2026-05-04 05:41 | 16.43498 | 139.43777 | 34942 ft | 497 kts | 162° |
| 2026-05-04 05:42 | 16.36994 | 139.46346 | 34941 ft | 497 kts | 162° |
| 2026-05-04 05:42 | 16.30533 | 139.48894 | 34939 ft | 496 kts | 162° |
| 2026-05-04 05:43 | 16.24061 | 139.51443 | 34938 ft | 496 kts | 162° |
| 2026-05-04 05:45 | 15.98174 | 139.61629 | 34936 ft | 496 kts | 162° |
| 2026-05-04 05:47 | 15.72231 | 139.71808 | 34923 ft | 498 kts | 162° |
| 2026-05-04 05:47 | 15.65749 | 139.74345 | 34926 ft | 497 kts | 162° |
| 2026-05-04 05:48 | 15.59240 | 139.76892 | 34921 ft | 499 kts | 162° |
| 2026-05-04 05:48 | 15.52739 | 139.79436 | 34920 ft | 500 kts | 162° |
| 2026-05-04 05:49 | 15.46188 | 139.81996 | 34918 ft | 501 kts | 162° |
| 2026-05-04 05:49 | 15.39688 | 139.84535 | 34918 ft | 499 kts | 162° |
| 2026-05-04 05:51 | 15.13540 | 139.94731 | 34912 ft | 502 kts | 162° |
| 2026-05-04 05:52 | 15.06970 | 139.97288 | 34910 ft | 502 kts | 162° |
| 2026-05-04 05:52 | 15.00399 | 139.99773 | 34900 ft | 500 kts | 167° |
| 2026-05-04 05:54 | 14.73232 | 140.05461 | 34904 ft | 496 kts | 171° |
| 2026-05-04 05:55 | 14.66438 | 140.06844 | 34902 ft | 497 kts | 171° |
| 2026-05-04 05:55 | 14.59595 | 140.08237 | 34893 ft | 498 kts | 171° |
| 2026-05-04 05:56 | 14.52815 | 140.09616 | 34890 ft | 496 kts | 171° |
| 2026-05-04 05:56 | 14.45994 | 140.11003 | 34889 ft | 496 kts | 171° |
| 2026-05-04 05:57 | 14.39222 | 140.12378 | 34888 ft | 496 kts | 171° |
| 2026-05-04 05:57 | 14.32441 | 140.13756 | 34888 ft | 496 kts | 171° |
| 2026-05-04 05:58 | 14.25609 | 140.15141 | 34889 ft | 496 kts | 171° |
| 2026-05-04 05:58 | 14.18857 | 140.16510 | 34888 ft | 498 kts | 171° |
| 2026-05-04 05:59 | 14.12021 | 140.17896 | 34884 ft | 496 kts | 171° |
| 2026-05-04 05:59 | 14.05252 | 140.19267 | 34875 ft | 495 kts | 171° |
| 2026-05-04 06:00 | 13.98461 | 140.20642 | 34868 ft | 496 kts | 171° |
| 2026-05-04 06:00 | 13.91677 | 140.22014 | 34868 ft | 496 kts | 171° |
| 2026-05-04 06:01 | 13.84895 | 140.23386 | 34871 ft | 495 kts | 171° |
| 2026-05-04 06:03 | 13.57747 | 140.28867 | 34891 ft | 495 kts | 170° |
| 2026-05-04 06:05 | 13.27365 | 140.34984 | 34890 ft | 494 kts | 170° |
| 2026-05-04 06:06 | 13.20604 | 140.36343 | 34889 ft | 491 kts | 170° |
| 2026-05-04 06:06 | 13.13869 | 140.37695 | 34880 ft | 492 kts | 170° |
| 2026-05-04 06:07 | 13.07139 | 140.39047 | 34869 ft | 492 kts | 170° |
| 2026-05-04 06:07 | 13.00408 | 140.40398 | 34868 ft | 491 kts | 169° |
| 2026-05-04 06:08 | 12.93673 | 140.41750 | 34868 ft | 491 kts | 170° |
| 2026-05-04 06:08 | 12.86960 | 140.43095 | 34871 ft | 491 kts | 170° |
| 2026-05-04 06:09 | 12.80262 | 140.44438 | 34866 ft | 489 kts | 169° |
| 2026-05-04 06:11 | 12.53662 | 140.49760 | 34859 ft | 482 kts | 169° |
| 2026-05-04 06:13 | 12.27151 | 140.55055 | 34865 ft | 484 kts | 168° |
| 2026-05-04 06:14 | 12.03918 | 140.59686 | 34867 ft | 486 kts | 168° |
| 2026-05-04 06:15 | 11.97243 | 140.61015 | 34864 ft | 488 kts | 168° |
| 2026-05-04 06:15 | 11.90556 | 140.62346 | 34864 ft | 486 kts | 168° |
| 2026-05-04 06:16 | 11.83935 | 140.63663 | 34864 ft | 486 kts | 168° |
| 2026-05-04 06:16 | 11.77283 | 140.64986 | 34861 ft | 486 kts | 168° |
| 2026-05-04 06:17 | 11.70613 | 140.66310 | 34861 ft | 486 kts | 168° |
| 2026-05-04 06:17 | 11.63952 | 140.67633 | 34862 ft | 487 kts | 168° |
| 2026-05-04 06:18 | 11.57281 | 140.68957 | 34856 ft | 487 kts | 168° |
| 2026-05-04 06:20 | 11.30549 | 140.74255 | 34837 ft | 488 kts | 168° |
| 2026-05-04 06:21 | 11.13799 | 140.77573 | 34836 ft | 490 kts | 168° |
| 2026-05-04 06:22 | 11.07106 | 140.78897 | 34846 ft | 491 kts | 168° |
| 2026-05-04 06:25 | 10.60012 | 140.88194 | 34837 ft | 493 kts | 168° |
| 2026-05-04 06:26 | 10.53266 | 140.89523 | 34836 ft | 493 kts | 168° |
| 2026-05-04 06:26 | 10.46476 | 140.90861 | 34842 ft | 494 kts | 168° |
| 2026-05-04 06:27 | 10.29551 | 140.94191 | 34846 ft | 495 kts | 168° |
| 2026-05-04 06:28 | 10.22762 | 140.95528 | 34846 ft | 494 kts | 168° |
| 2026-05-04 06:28 | 10.15989 | 140.96860 | 34848 ft | 495 kts | 168° |
| 2026-05-04 06:29 | 10.09255 | 140.98183 | 34847 ft | 495 kts | 168° |
| 2026-05-04 06:29 | 10.02437 | 140.99521 | 34847 ft | 497 kts | 168° |
| 2026-05-04 06:30 | 9.95595 | 141.00745 | 34850 ft | 497 kts | 171° |
| 2026-05-04 06:30 | 9.88767 | 141.01776 | 34846 ft | 496 kts | 170° |
| 2026-05-04 06:31 | 9.81895 | 141.02824 | 34845 ft | 496 kts | 170° |
| 2026-05-04 06:31 | 9.75070 | 141.03873 | 34842 ft | 496 kts | 170° |
| 2026-05-04 06:33 | 9.47633 | 141.08109 | 34849 ft | 497 kts | 170° |
| 2026-05-04 06:34 | 9.40813 | 141.09161 | 34846 ft | 496 kts | 170° |
| 2026-05-04 06:34 | 9.33923 | 141.10226 | 34837 ft | 496 kts | 170° |
| 2026-05-04 06:36 | 9.06546 | 141.14450 | 34830 ft | 497 kts | 169° |
| 2026-05-04 06:37 | 8.99715 | 141.15505 | 34827 ft | 497 kts | 169° |
| 2026-05-04 06:37 | 8.92862 | 141.16560 | 34826 ft | 497 kts | 169° |
| 2026-05-04 06:38 | 8.85971 | 141.17622 | 34825 ft | 496 kts | 169° |
| 2026-05-04 06:40 | 8.58595 | 141.21835 | 34826 ft | 496 kts | 169° |
| 2026-05-04 06:40 | 8.51736 | 141.22890 | 34826 ft | 496 kts | 169° |
| 2026-05-04 06:41 | 8.44890 | 141.23943 | 34826 ft | 496 kts | 169° |
| 2026-05-04 06:41 | 8.38052 | 141.24994 | 34825 ft | 496 kts | 169° |
| 2026-05-04 06:42 | 8.31199 | 141.26047 | 34826 ft | 496 kts | 169° |
| 2026-05-04 06:44 | 8.03840 | 141.30244 | 34826 ft | 495 kts | 169° |
| 2026-05-04 06:44 | 7.96989 | 141.31296 | 34827 ft | 496 kts | 169° |
| 2026-05-04 06:45 | 7.90163 | 141.32342 | 34826 ft | 496 kts | 169° |
| 2026-05-04 06:45 | 7.83329 | 141.33389 | 34825 ft | 495 kts | 169° |
| 2026-05-04 06:46 | 7.76482 | 141.34438 | 34825 ft | 494 kts | 169° |
| 2026-05-04 06:46 | 7.69660 | 141.35483 | 34824 ft | 495 kts | 169° |
| 2026-05-04 06:48 | 7.42357 | 141.39661 | 34809 ft | 495 kts | 168° |
| 2026-05-04 06:50 | 7.15052 | 141.43832 | 34809 ft | 493 kts | 168° |
| 2026-05-04 06:51 | 7.08252 | 141.44871 | 34806 ft | 493 kts | 168° |
| 2026-05-04 06:51 | 7.01461 | 141.45909 | 34809 ft | 493 kts | 168° |
| 2026-05-04 06:52 | 6.94638 | 141.46950 | 34814 ft | 494 kts | 168° |
| 2026-05-04 06:52 | 6.87854 | 141.47986 | 34815 ft | 493 kts | 168° |
| 2026-05-04 06:53 | 6.81033 | 141.49026 | 34819 ft | 494 kts | 168° |
| 2026-05-04 06:53 | 6.74192 | 141.50069 | 34818 ft | 493 kts | 168° |
| 2026-05-04 06:54 | 6.67421 | 141.51100 | 34820 ft | 493 kts | 168° |
| 2026-05-04 06:54 | 6.60582 | 141.52142 | 34823 ft | 494 kts | 168° |
| 2026-05-04 06:55 | 6.53770 | 141.53181 | 34822 ft | 493 kts | 168° |
| 2026-05-04 06:55 | 6.46988 | 141.54215 | 34823 ft | 494 kts | 168° |
| 2026-05-04 06:57 | 6.19745 | 141.58360 | 34823 ft | 493 kts | 168° |
| 2026-05-04 06:58 | 6.12965 | 141.59392 | 34824 ft | 493 kts | 168° |
| 2026-05-04 06:58 | 6.06142 | 141.60429 | 34823 ft | 493 kts | 168° |
| 2026-05-04 06:59 | 5.99324 | 141.61465 | 34824 ft | 492 kts | 168° |
| 2026-05-04 06:59 | 5.92532 | 141.62499 | 34824 ft | 493 kts | 168° |
| 2026-05-04 07:01 | 5.65348 | 141.66628 | 34819 ft | 494 kts | 169° |
| 2026-05-04 07:02 | 5.58531 | 141.67662 | 34813 ft | 494 kts | 169° |
| 2026-05-04 07:02 | 5.51702 | 141.68700 | 34810 ft | 493 kts | 168° |
| 2026-05-04 07:03 | 5.44890 | 141.69733 | 34808 ft | 494 kts | 169° |
| 2026-05-04 07:03 | 5.38091 | 141.70764 | 34808 ft | 494 kts | 169° |
| 2026-05-04 07:04 | 5.31273 | 141.71799 | 34808 ft | 494 kts | 169° |
| 2026-05-04 07:04 | 5.24455 | 141.72832 | 34808 ft | 494 kts | 169° |
| 2026-05-04 07:05 | 5.17646 | 141.73865 | 34809 ft | 495 kts | 169° |
| 2026-05-04 07:05 | 5.10833 | 141.74896 | 34808 ft | 495 kts | 169° |
| 2026-05-04 07:06 | 5.00586 | 141.76450 | 34818 ft | 494 kts | 169° |
| 2026-05-04 07:07 | 4.93753 | 141.77484 | 34828 ft | 494 kts | 169° |
| 2026-05-04 07:09 | 4.66501 | 141.81610 | 34828 ft | 494 kts | 169° |
| 2026-05-04 07:09 | 4.59670 | 141.82645 | 34828 ft | 494 kts | 169° |
| 2026-05-04 07:10 | 4.52849 | 141.83676 | 34827 ft | 493 kts | 169° |
| 2026-05-04 07:12 | 4.25646 | 141.87791 | 34828 ft | 495 kts | 169° |
| 2026-05-04 07:12 | 4.18816 | 141.88823 | 34829 ft | 494 kts | 169° |
| 2026-05-04 07:13 | 4.12030 | 141.89848 | 34828 ft | 494 kts | 169° |
| 2026-05-04 07:13 | 4.05186 | 141.90883 | 34829 ft | 493 kts | 169° |
| 2026-05-04 07:14 | 3.87994 | 141.91927 | 34830 ft | 495 kts | 177° |
| 2026-05-04 07:15 | 3.81083 | 141.92067 | 34831 ft | 496 kts | 176° |
| 2026-05-04 07:15 | 3.74155 | 141.92209 | 34825 ft | 495 kts | 177° |
| 2026-05-04 07:16 | 3.67263 | 141.92352 | 34823 ft | 495 kts | 177° |
| 2026-05-04 07:16 | 3.60356 | 141.92496 | 34817 ft | 494 kts | 177° |
| 2026-05-04 07:17 | 3.53450 | 141.92639 | 34815 ft | 494 kts | 177° |
| 2026-05-04 07:17 | 3.46561 | 141.92783 | 34812 ft | 494 kts | 177° |
| 2026-05-04 07:18 | 3.39684 | 141.92926 | 34812 ft | 494 kts | 177° |
| 2026-05-04 07:18 | 3.32751 | 141.93071 | 34814 ft | 495 kts | 177° |
| 2026-05-04 07:19 | 3.25840 | 141.93216 | 34817 ft | 494 kts | 177° |
| 2026-05-04 07:19 | 3.18932 | 141.93359 | 34825 ft | 493 kts | 177° |
| 2026-05-04 07:20 | 3.12050 | 141.93503 | 34827 ft | 493 kts | 177° |
| 2026-05-04 07:20 | 3.05169 | 141.93646 | 34829 ft | 493 kts | 177° |
| 2026-05-04 07:22 | 2.77569 | 141.94222 | 34825 ft | 495 kts | 177° |
| 2026-05-04 07:23 | 2.70632 | 141.94368 | 34825 ft | 495 kts | 177° |
| 2026-05-04 07:23 | 2.63746 | 141.94511 | 34827 ft | 494 kts | 178° |
| 2026-05-04 07:24 | 2.56857 | 141.94655 | 34827 ft | 493 kts | 177° |
| 2026-05-04 07:24 | 2.50008 | 141.94798 | 34825 ft | 493 kts | 178° |
| 2026-05-04 07:26 | 2.22345 | 141.95373 | 34827 ft | 496 kts | 178° |
| 2026-05-04 07:27 | 2.15403 | 141.95519 | 34827 ft | 496 kts | 178° |
| 2026-05-04 07:27 | 2.08473 | 141.95662 | 34823 ft | 497 kts | 178° |
| 2026-05-04 07:28 | 2.01527 | 141.95805 | 34827 ft | 497 kts | 178° |
| 2026-05-04 07:28 | 1.94617 | 141.95950 | 34828 ft | 498 kts | 178° |
| 2026-05-04 07:29 | 1.87651 | 141.96095 | 34826 ft | 497 kts | 178° |
| 2026-05-04 07:29 | 1.80709 | 141.96240 | 34826 ft | 497 kts | 178° |
| 2026-05-04 07:30 | 1.73804 | 141.96384 | 34827 ft | 496 kts | 178° |
| 2026-05-04 07:30 | 1.66858 | 141.96529 | 34831 ft | 498 kts | 178° |
| 2026-05-04 07:31 | 1.59915 | 141.96674 | 34838 ft | 499 kts | 178° |
| 2026-05-04 07:33 | 1.32052 | 141.97253 | 34845 ft | 499 kts | 178° |
| 2026-05-04 07:33 | 1.25117 | 141.97397 | 34841 ft | 499 kts | 178° |
| 2026-05-04 07:34 | 1.18113 | 141.97543 | 34839 ft | 500 kts | 178° |
| 2026-05-04 07:34 | 1.11172 | 141.97687 | 34831 ft | 499 kts | 178° |
| 2026-05-04 07:35 | 1.04193 | 141.97833 | 34828 ft | 499 kts | 178° |
| 2026-05-04 07:35 | 0.97218 | 141.97978 | 34827 ft | 500 kts | 178° |
| 2026-05-04 07:36 | 0.90230 | 141.98123 | 34828 ft | 500 kts | 178° |
| 2026-05-04 07:38 | 0.62268 | 141.98704 | 34829 ft | 501 kts | 178° |
| 2026-05-04 07:38 | 0.55284 | 141.98850 | 34825 ft | 501 kts | 178° |
| 2026-05-04 07:39 | 0.48273 | 141.98996 | 34830 ft | 502 kts | 178° |
| 2026-05-04 07:39 | 0.41264 | 141.99142 | 34828 ft | 503 kts | 178° |
| 2026-05-04 07:40 | 0.34267 | 141.99287 | 34829 ft | 503 kts | 178° |
| 2026-05-04 07:40 | 0.27226 | 141.99434 | 34828 ft | 503 kts | 178° |
| 2026-05-04 07:41 | 0.20232 | 141.99579 | 34830 ft | 503 kts | 178° |
| 2026-05-04 07:41 | 0.13192 | 141.99725 | 34828 ft | 502 kts | 178° |
| 2026-05-04 07:42 | 0.06169 | 141.99872 | 34830 ft | 504 kts | 178° |
| 2026-05-04 07:42 | -0.00913 | 142.00020 | 34829 ft | 507 kts | 178° |
| 2026-05-04 07:43 | -0.04471 | 142.00139 | 35029 ft | 513 kts | 177° |
| 2026-05-04 07:43 | -0.08029 | 142.00270 | 35720 ft | 510 kts | 178° |
| 2026-05-04 07:43 | -0.11539 | 142.00398 | 36572 ft | 503 kts | 178° |
| 2026-05-04 07:43 | -0.15066 | 142.00526 | 36823 ft | 507 kts | 178° |
| 2026-05-04 07:44 | -0.22101 | 142.00781 | 36830 ft | 504 kts | 178° |
| 2026-05-04 07:44 | -0.29151 | 142.01035 | 36837 ft | 503 kts | 178° |
| 2026-05-04 07:45 | -0.36139 | 142.01283 | 36843 ft | 504 kts | 178° |
| 2026-05-04 07:45 | -0.43185 | 142.01535 | 36847 ft | 503 kts | 178° |
| 2026-05-04 07:46 | -0.50210 | 142.01785 | 36845 ft | 503 kts | 178° |
| 2026-05-04 07:46 | -0.57210 | 142.02035 | 36844 ft | 503 kts | 178° |
| 2026-05-04 07:47 | -0.64225 | 142.02284 | 36833 ft | 503 kts | 178° |
| 2026-05-04 07:49 | -0.92261 | 142.03281 | 36830 ft | 502 kts | 178° |
| 2026-05-04 07:49 | -0.99243 | 142.03529 | 36829 ft | 503 kts | 178° |
| 2026-05-04 07:50 | -1.06280 | 142.03780 | 36825 ft | 501 kts | 178° |
| 2026-05-04 07:50 | -1.13232 | 142.04027 | 36823 ft | 502 kts | 178° |
| 2026-05-04 07:51 | -1.20264 | 142.04277 | 36826 ft | 503 kts | 178° |
| 2026-05-04 07:51 | -1.27279 | 142.04526 | 36825 ft | 501 kts | 178° |
| 2026-05-04 07:52 | -1.34261 | 142.04774 | 36826 ft | 503 kts | 178° |
| 2026-05-04 07:52 | -1.41298 | 142.05025 | 36826 ft | 502 kts | 178° |
| 2026-05-04 07:54 | -1.69264 | 142.06020 | 36829 ft | 501 kts | 177° |
| 2026-05-04 07:55 | -1.76272 | 142.06270 | 36827 ft | 501 kts | 177° |
| 2026-05-04 07:55 | -1.83226 | 142.06517 | 36828 ft | 499 kts | 177° |
| 2026-05-04 07:56 | -1.90197 | 142.06766 | 36826 ft | 499 kts | 177° |
| 2026-05-04 07:56 | -1.97152 | 142.07013 | 36828 ft | 501 kts | 177° |
| 2026-05-04 07:57 | -2.04154 | 142.07263 | 36827 ft | 500 kts | 177° |
| 2026-05-04 07:57 | -2.11089 | 142.07509 | 36829 ft | 499 kts | 177° |
| 2026-05-04 07:58 | -2.18072 | 142.07758 | 36824 ft | 498 kts | 177° |
| 2026-05-04 07:58 | -2.24979 | 142.08003 | 36816 ft | 498 kts | 177° |
| 2026-05-04 07:59 | -2.31936 | 142.08252 | 36815 ft | 497 kts | 177° |
| 2026-05-04 07:59 | -2.38879 | 142.08499 | 36823 ft | 498 kts | 177° |
| 2026-05-04 08:00 | -2.45849 | 142.08748 | 36828 ft | 498 kts | 177° |
| 2026-05-04 08:02 | -2.73577 | 142.09735 | 36834 ft | 496 kts | 177° |
| 2026-05-04 08:02 | -2.80485 | 142.09981 | 36829 ft | 495 kts | 177° |
| 2026-05-04 08:03 | -2.87380 | 142.10226 | 36830 ft | 495 kts | 177° |
| 2026-05-04 08:03 | -2.94267 | 142.10472 | 36829 ft | 494 kts | 177° |
| 2026-05-04 08:04 | -3.01179 | 142.10719 | 36831 ft | 495 kts | 177° |
| 2026-05-04 08:04 | -3.08065 | 142.10965 | 36840 ft | 494 kts | 177° |
| 2026-05-04 08:05 | -3.14958 | 142.11211 | 36844 ft | 495 kts | 177° |
| 2026-05-04 08:05 | -3.21882 | 142.11456 | 36857 ft | 495 kts | 177° |
| 2026-05-04 08:06 | -3.28768 | 142.11703 | 36865 ft | 495 kts | 177° |
| 2026-05-04 08:06 | -3.35644 | 142.11948 | 36875 ft | 494 kts | 177° |
| 2026-05-04 08:08 | -3.63237 | 142.12933 | 36880 ft | 494 kts | 177° |
| 2026-05-04 08:11 | -3.94346 | 142.14044 | 36832 ft | 495 kts | 177° |
| 2026-05-04 08:11 | -4.04687 | 142.14414 | 36833 ft | 495 kts | 177° |
| 2026-05-04 08:12 | -4.11594 | 142.14661 | 36847 ft | 496 kts | 177° |
| 2026-05-04 08:12 | -4.18524 | 142.14908 | 36834 ft | 495 kts | 177° |
| 2026-05-04 08:13 | -4.25415 | 142.15155 | 36855 ft | 495 kts | 176° |
| 2026-05-04 08:13 | -4.32332 | 142.15402 | 36857 ft | 496 kts | 176° |
| 2026-05-04 08:14 | -4.39217 | 142.15648 | 36873 ft | 496 kts | 177° |
| 2026-05-04 08:16 | -4.66889 | 142.16638 | 36955 ft | 496 kts | 176° |
| 2026-05-04 08:16 | -4.73794 | 142.16885 | 36967 ft | 496 kts | 177° |
| 2026-05-04 08:17 | -4.80693 | 142.17134 | 37011 ft | 496 kts | 176° |
| 2026-05-04 08:17 | -4.87649 | 142.17383 | 37063 ft | 495 kts | 176° |
| 2026-05-04 08:19 | -5.11835 | 142.18248 | 37198 ft | 496 kts | 177° |
| 2026-05-04 08:19 | -5.15312 | 142.18373 | 37205 ft | 496 kts | 176° |
| 2026-05-04 08:20 | -5.22232 | 142.18622 | 37223 ft | 496 kts | 176° |
| 2026-05-04 08:20 | -5.29109 | 142.18867 | 37242 ft | 496 kts | 177° |
| 2026-05-04 08:21 | -5.36054 | 142.19118 | 37239 ft | 495 kts | 177° |
| 2026-05-04 08:21 | -5.42964 | 142.19365 | 37243 ft | 495 kts | 177° |
| 2026-05-04 08:22 | -5.49859 | 142.19612 | 37246 ft | 495 kts | 177° |
| 2026-05-04 08:24 | -5.74062 | 142.20482 | 37017 ft | 496 kts | 177° |
| 2026-05-04 08:24 | -5.77488 | 142.20604 | 36970 ft | 495 kts | 177° |
| 2026-05-04 08:24 | -5.84415 | 142.20853 | 36964 ft | 496 kts | 177° |
| 2026-05-04 08:25 | -5.91306 | 142.21101 | 36953 ft | 496 kts | 177° |
| 2026-05-04 08:25 | -5.98214 | 142.21349 | 36941 ft | 495 kts | 177° |
| 2026-05-04 08:27 | -6.25942 | 142.22343 | 36906 ft | 496 kts | 177° |
| 2026-05-04 08:28 | -6.32862 | 142.22592 | 36908 ft | 497 kts | 177° |
| 2026-05-04 08:28 | -6.39793 | 142.22841 | 36911 ft | 497 kts | 178° |
| 2026-05-04 08:29 | -6.46724 | 142.23090 | 36908 ft | 496 kts | 178° |
| 2026-05-04 08:31 | -6.74394 | 142.24085 | 36890 ft | 497 kts | 178° |
| 2026-05-04 08:33 | -7.02081 | 142.25081 | 36884 ft | 496 kts | 178° |
| 2026-05-04 08:35 | -7.29805 | 142.26080 | 36894 ft | 497 kts | 178° |
| 2026-05-04 08:35 | -7.36747 | 142.26331 | 36896 ft | 497 kts | 178° |
| 2026-05-04 08:37 | -7.60982 | 142.27205 | 36884 ft | 497 kts | 178° |
| 2026-05-04 08:38 | -7.67921 | 142.27455 | 36877 ft | 497 kts | 178° |
| 2026-05-04 08:38 | -7.74830 | 142.27705 | 36876 ft | 498 kts | 178° |
| 2026-05-04 08:40 | -8.02601 | 142.28709 | 36871 ft | 497 kts | 178° |
| 2026-05-04 08:41 | -8.09559 | 142.28963 | 36871 ft | 500 kts | 178° |
| 2026-05-04 08:41 | -8.16534 | 142.29215 | 36868 ft | 499 kts | 178° |
| 2026-05-04 08:42 | -8.23530 | 142.29468 | 36868 ft | 499 kts | 178° |
| 2026-05-04 08:42 | -8.30505 | 142.29719 | 36869 ft | 501 kts | 178° |
| 2026-05-04 08:43 | -8.37503 | 142.29973 | 36872 ft | 501 kts | 178° |
| 2026-05-04 08:43 | -8.44449 | 142.30225 | 36872 ft | 502 kts | 178° |
| 2026-05-04 08:44 | -8.51471 | 142.30479 | 36875 ft | 504 kts | 178° |
| 2026-05-04 08:46 | -8.79561 | 142.31499 | 36875 ft | 503 kts | 178° |
| 2026-05-04 08:46 | -8.86575 | 142.31753 | 36881 ft | 505 kts | 178° |
| 2026-05-04 08:47 | -8.93594 | 142.32008 | 36888 ft | 504 kts | 178° |
| 2026-05-04 08:47 | -9.00643 | 142.32265 | 36889 ft | 505 kts | 178° |
| 2026-05-04 08:48 | -9.07668 | 142.32521 | 36891 ft | 504 kts | 178° |
| 2026-05-04 08:48 | -9.14746 | 142.32777 | 36887 ft | 505 kts | 178° |
| 2026-05-04 08:49 | -9.21771 | 142.33034 | 36887 ft | 506 kts | 178° |
| 2026-05-04 08:50 | -9.46553 | 142.32858 | 36889 ft | 508 kts | 182° |
| 2026-05-04 08:51 | -9.53622 | 142.32616 | 36889 ft | 507 kts | 182° |
| 2026-05-04 08:51 | -9.60720 | 142.32379 | 36888 ft | 508 kts | 182° |
| 2026-05-04 08:52 | -9.67843 | 142.32149 | 36888 ft | 510 kts | 182° |
| 2026-05-04 08:52 | -9.74960 | 142.31921 | 36891 ft | 512 kts | 182° |
| 2026-05-04 08:54 | -10.03448 | 142.31020 | 36892 ft | 512 kts | 182° |
| 2026-05-04 08:55 | -10.10580 | 142.30795 | 36891 ft | 511 kts | 182° |
| 2026-05-04 08:55 | -10.17751 | 142.30568 | 36886 ft | 513 kts | 182° |
| 2026-05-04 09:01 | -10.92521 | 142.33313 | 36892 ft | 511 kts | 174° |
| 2026-05-04 09:01 | -10.99584 | 142.34175 | 36907 ft | 512 kts | 174° |
| 2026-05-04 09:02 | -11.06679 | 142.35040 | 36918 ft | 512 kts | 174° |
| 2026-05-04 09:02 | -11.13768 | 142.35906 | 36908 ft | 513 kts | 174° |
| 2026-05-04 09:03 | -11.20846 | 142.36771 | 36910 ft | 512 kts | 174° |
| 2026-05-04 09:03 | -11.27955 | 142.37639 | 36915 ft | 510 kts | 174° |